Aérodrome :
LOGIN :

S'inscrire | Disclaimer

   EN    FR    IT 

 










Légende :    VFR   VFR Marginal   IFR   IFR Intensif   IFR Très Intensif
Visi : 
Plafond : 
>= 8 km
>= 3000ft
5 à 8 km
1000 à 3000 ft
1500m à 5 km
500 à 1000 ft
800 à 1500m
200 à 500 ft
< 800m
< 200 ft
Symboles :   Orages  Brouillard  Fortes neiges  Fortes précipitations  Vent > 20 kt
SIGMETs :   Divers  Orages  Givrage  Turbulence  Onde Orograph.  Cendres Volcan.







- Altitude de l'aérodrome : 1234 ft
- Code IATA : LUX


ELLX - Luxembourg Findel

DERNIER METAR :
  • 230850Z 25009KT 210V290 9999 FEW010 SCT015 BKN025 14/12 Q1016 NOSIG

METARs EXPIRÉS :
  • 230820Z 24008KT 200V270 9999 FEW007 BKN012 14/12 Q1016 NOSIG
  • 230750Z 23008KT 190V260 9999 FEW008 SCT012 BKN025 14/12 Q1016 NOSIG
  • 230720Z 25010KT 9999 FEW007 SCT011 BKN021 14/12 Q1016 NOSIG
  • 230650Z 23009KT 9999 SCT007 BKN013 BKN021 14/12 Q1016 NOSIG
  • 230620Z 24008KT 9999 SCT007 BKN011 BKN020 14/13 Q1015 NOSIG
  • 230550Z 23007KT 9999 SCT005 BKN007 14/13 Q1015 NOSIG

TAF TAF ELLX
Valide du 23 à 00h jusqu'au 24 à 06h UTC


222300Z 2300/2406 26010KT 9999 BKN030
TEMPO 2300/2304 3000 RA BKN010
TEMPO 2304/2308 BKN007
TEMPO 2310/2316 -SHRA SCT015TCU
ATIS : +352 4798 27300
Météo : +352 4798 27010 / 27050
Pas de NOTAMs connus pour ce terrain.



MET'MAP, la Météo Aéronautique d'un coup d'oeil ! - Copyright ORBIFLY Décembre 2007 - Disclaimer

ORBIFLY MET'MAP TEAM :

Programmation & Développement : Alexandra Zaïnal
Conception & Développement : Baudouin d'Aumeries
Co-Programmation & Développement : Marc-Olivier Méhu
Soutien technique & logistique : Manuel Goepfert

Contact : metmap@orbifly.com




SOURCES & CREDITS :

   NOAA